Time;durP1;ratioP1;P1;durP2;ratioP2;P2;SDS_P1;SDS_P2;PMS_P1;PMS_P2;Temp;Humidity;BMP_temperature;BMP_pressure;BME280_temperature;BME280_humidity;BME280_pressure;Samples;Min_cycle;Max_cycle;Signal;HPM_P1;HPM_P2
2023/11/16 00:00:17;;;;;;;7.00;3.23;;;18.60;72.60;;;;;;5027509;28;20443;-77
2023/11/16 00:02:47;;;;;;;5.30;3.20;;;18.50;72.70;;;;;;5033824;28;20538;-75
2023/11/16 00:05:16;;;;;;;4.90;3.37;;;18.60;72.60;;;;;;5031871;28;20458;-76
2023/11/16 00:07:45;;;;;;;4.97;2.60;;;18.60;72.30;;;;;;5024597;28;20525;-76
2023/11/16 00:10:16;;;;;;;7.97;3.40;;;18.60;72.70;;;;;;5031007;28;20494;-76
2023/11/16 00:12:44;;;;;;;5.43;2.90;;;18.60;72.50;;;;;;5029818;28;20518;-75
2023/11/16 00:15:14;;;;;;;6.60;3.40;;;18.60;72.40;;;;;;5028582;28;20459;-77
2023/11/16 00:17:43;;;;;;;4.73;2.80;;;18.50;72.40;;;;;;5030841;28;20490;-75
2023/11/16 00:20:11;;;;;;;5.13;2.90;;;18.50;72.50;;;;;;5025568;28;20444;-75
2023/11/16 00:22:39;;;;;;;5.03;3.03;;;18.60;72.50;;;;;;5037713;28;20507;-76
2023/11/16 00:25:08;;;;;;;5.43;3.00;;;18.60;72.60;;;;;;5031132;28;20848;-75
2023/11/16 00:27:36;;;;;;;3.37;2.90;;;18.60;72.50;;;;;;5029743;28;20487;-76
2023/11/16 00:30:05;;;;;;;4.53;3.10;;;18.50;72.20;;;;;;5044749;28;20482;-76
2023/11/16 00:32:35;;;;;;;3.90;2.73;;;18.60;72.30;;;;;;5035004;28;20474;-75
2023/11/16 00:35:03;;;;;;;5.30;3.23;;;18.50;72.30;;;;;;5031754;28;20451;-75
2023/11/16 00:37:32;;;;;;;4.90;2.40;;;18.50;72.20;;;;;;5028824;28;20543;-77
2023/11/16 00:40:00;;;;;;;4.30;2.87;;;18.50;72.50;;;;;;5030818;28;20571;-76
2023/11/16 00:42:28;;;;;;;5.13;3.37;;;18.50;72.40;;;;;;5027548;28;20510;-76
2023/11/16 00:44:56;;;;;;;4.30;2.90;;;18.60;72.20;;;;;;5027069;28;20513;-76
2023/11/16 00:47:24;;;;;;;4.97;3.00;;;18.60;72.50;;;;;;5035140;28;20538;-76
2023/11/16 00:49:54;;;;;;;5.33;3.17;;;18.50;72.10;;;;;;5034991;28;20458;-76
2023/11/16 00:52:24;;;;;;;3.23;2.63;;;18.50;72.40;;;;;;5035540;28;20478;-77
2023/11/16 00:54:52;;;;;;;5.10;3.20;;;18.50;72.20;;;;;;5035482;28;20462;-78
2023/11/16 00:57:22;;;;;;;4.40;2.70;;;18.50;72.10;;;;;;5035296;28;20485;-78
2023/11/16 00:59:49;;;;;;;6.23;3.13;;;18.50;72.20;;;;;;5035153;28;20456;-78
2023/11/16 01:02:18;;;;;;;5.87;2.83;;;18.50;72.90;;;;;;5034409;28;20534;-76
2023/11/16 01:04:46;;;;;;;4.17;2.83;;;18.50;72.50;;;;;;5042219;28;20447;-76
2023/11/16 01:07:15;;;;;;;3.93;2.70;;;18.50;72.60;;;;;;5035214;28;20474;-75
2023/11/16 01:09:43;;;;;;;4.47;3.23;;;18.50;72.20;;;;;;5033357;28;20478;-76
2023/11/16 01:12:15;;;;;;;6.20;2.87;;;18.50;72.10;;;;;;5028771;28;20435;-77
2023/11/16 01:14:44;;;;;;;4.70;2.60;;;18.40;72.20;;;;;;5034927;28;20439;-76
2023/11/16 01:17:18;;;;;;;3.00;2.70;;;18.50;72.70;;;;;;5035034;28;20471;-77
2023/11/16 01:19:47;;;;;;;4.03;2.80;;;18.50;72.50;;;;;;5034290;28;20447;-77
2023/11/16 01:22:21;;;;;;;3.67;2.77;;;18.50;73.40;;;;;;5036429;28;20501;-77
2023/11/16 01:24:51;;;;;;;5.40;2.70;;;18.50;72.40;;;;;;5036455;28;20467;-78
2023/11/16 01:27:25;;;;;;;3.53;2.77;;;18.40;72.50;;;;;;5048261;28;20470;-76
2023/11/16 01:29:54;;;;;;;7.83;2.83;;;18.50;72.50;;;;;;5034504;28;20517;-76
2023/11/16 01:32:21;;;;;;;3.53;2.77;;;18.40;72.40;;;;;;5034616;28;20436;-77
2023/11/16 01:34:51;;;;;;;6.23;3.17;;;18.40;72.40;;;;;;5042696;28;20485;-77
2023/11/16 01:37:20;;;;;;;3.23;2.80;;;18.50;72.20;;;;;;5043009;28;20527;-77
2023/11/16 01:39:47;;;;;;;4.67;2.73;;;18.40;72.20;;;;;;5033702;28;20523;-77
2023/11/16 01:42:15;;;;;;;4.03;2.50;;;18.50;72.40;;;;;;5034471;28;20470;-77
2023/11/16 01:44:43;;;;;;;2.87;2.50;;;18.50;72.60;;;;;;5034057;28;20439;-75
2023/11/16 01:47:14;;;;;;;6.03;2.60;;;18.40;71.90;;;;;;5034145;28;20444;-77
2023/11/16 01:49:43;;;;;;;3.03;2.60;;;18.40;72.30;;;;;;5032807;28;20525;-77
2023/11/16 01:52:13;;;;;;;5.17;2.60;;;18.40;72.30;;;;;;5031194;28;20508;-76
2023/11/16 01:54:43;;;;;;;6.83;2.63;;;18.40;72.30;;;;;;5036910;28;20450;-75
2023/11/16 01:57:11;;;;;;;2.53;2.30;;;18.40;72.30;;;;;;5034233;28;20535;-75
2023/11/16 01:59:39;;;;;;;3.43;2.50;;;18.40;72.40;;;;;;5033764;28;20470;-75
2023/11/16 02:02:10;;;;;;;4.50;2.70;;;18.40;72.30;;;;;;5033963;28;20534;-76
2023/11/16 02:04:39;;;;;;;3.20;2.63;;;18.40;72.20;;;;;;5033777;28;20475;-76
2023/11/16 02:07:07;;;;;;;5.20;2.70;;;18.40;72.30;;;;;;5033767;28;20534;-75
2023/11/16 02:09:35;;;;;;;3.67;3.07;;;18.40;72.20;;;;;;5033357;28;20470;-77
2023/11/16 02:12:06;;;;;;;9.27;3.40;;;18.40;72.30;;;;;;5020848;28;20467;-76
2023/11/16 02:14:35;;;;;;;7.87;3.77;;;18.40;71.90;;;;;;5032703;28;20451;-75
2023/11/16 02:17:03;;;;;;;4.63;3.47;;;18.40;72.10;;;;;;5033152;28;20448;-76
2023/11/16 02:19:32;;;;;;;7.90;4.00;;;18.40;72.00;;;;;;5032845;28;20468;-76
2023/11/16 02:22:00;;;;;;;7.63;4.93;;;18.40;71.90;;;;;;5031789;28;20878;-76
2023/11/16 02:24:31;;;;;;;5.10;3.80;;;18.40;72.10;;;;;;5031745;28;20443;-76
2023/11/16 02:26:59;;;;;;;7.30;4.90;;;18.40;72.30;;;;;;5031985;28;20435;-76
2023/11/16 02:29:27;;;;;;;7.17;5.30;;;18.40;72.20;;;;;;5031610;28;20473;-76
2023/11/16 02:31:56;;;;;;;8.43;5.53;;;18.40;72.50;;;;;;5026452;28;20475;-76
2023/11/16 02:34:24;;;;;;;8.40;5.03;;;18.40;72.50;;;;;;5040975;28;20508;-75
2023/11/16 02:36:53;;;;;;;10.27;5.10;;;18.40;72.40;;;;;;5044694;28;20443;-75
2023/11/16 02:39:21;;;;;;;7.57;4.93;;;18.40;72.40;;;;;;5044558;28;20459;-75
2023/11/16 02:41:51;;;;;;;9.17;5.00;;;18.30;72.50;;;;;;5044948;28;20440;-75
2023/11/16 02:44:19;;;;;;;7.37;5.53;;;18.30;72.60;;;;;;5044984;28;20454;-75
2023/11/16 02:46:47;;;;;;;7.20;5.50;;;18.30;72.70;;;;;;5044597;28;20470;-75
2023/11/16 02:49:15;;;;;;;10.43;5.80;;;18.30;72.60;;;;;;5033990;28;20474;-75
2023/11/16 02:51:46;;;;;;;7.87;5.10;;;18.30;72.70;;;;;;5029679;28;20467;-75
2023/11/16 02:54:14;;;;;;;11.83;5.37;;;18.30;72.90;;;;;;5041266;28;20451;-76
2023/11/16 02:56:45;;;;;;;7.90;5.13;;;18.30;72.70;;;;;;5027030;28;20454;-76
2023/11/16 02:59:15;;;;;;;7.70;5.40;;;18.30;72.60;;;;;;5023251;28;20534;-77
2023/11/16 03:01:43;;;;;;;7.50;5.27;;;18.30;73.10;;;;;;5023811;28;20441;-76
2023/11/16 03:04:13;;;;;;;9.40;5.60;;;18.30;73.30;;;;;;5020761;28;20454;-76
2023/11/16 03:06:41;;;;;;;10.30;5.90;;;18.30;72.90;;;;;;5035086;28;20458;-76
2023/11/16 03:09:15;;;;;;;6.27;4.70;;;18.30;72.90;;;;;;5036640;28;20455;-76
2023/11/16 03:11:44;;;;;;;7.10;5.23;;;18.30;73.10;;;;;;5040372;28;20466;-77
2023/11/16 03:14:13;;;;;;;11.80;5.30;;;18.30;73.20;;;;;;5024634;28;20467;-77
2023/11/16 03:16:45;;;;;;;5.97;4.60;;;18.30;73.20;;;;;;5048807;28;20443;-76
2023/11/16 03:19:14;;;;;;;5.33;4.40;;;18.30;73.20;;;;;;5044176;28;20473;-76
2023/11/16 03:21:41;;;;;;;11.67;4.83;;;18.30;73.00;;;;;;5044429;28;20517;-76
2023/11/16 03:24:12;;;;;;;6.20;4.90;;;18.30;73.10;;;;;;5025820;28;20553;-76
2023/11/16 03:26:41;;;;;;;5.57;4.93;;;18.30;73.30;;;;;;5032562;28;20440;-76
2023/11/16 03:29:08;;;;;;;6.70;4.63;;;18.30;73.20;;;;;;5043937;28;20494;-76
2023/11/16 03:31:37;;;;;;;8.40;5.00;;;18.30;73.40;;;;;;5043713;28;20541;-75
2023/11/16 03:34:06;;;;;;;7.83;5.33;;;18.30;73.30;;;;;;5041357;28;20457;-77
2023/11/16 03:36:35;;;;;;;7.40;4.60;;;18.30;73.10;;;;;;5038524;28;20501;-76
2023/11/16 03:39:04;;;;;;;5.57;4.40;;;18.30;73.50;;;;;;5041862;28;20467;-76
2023/11/16 03:41:33;;;;;;;5.80;4.53;;;18.30;73.10;;;;;;5034312;28;20455;-77
2023/11/16 03:44:01;;;;;;;6.50;4.90;;;18.30;73.40;;;;;;5033072;28;20447;-76
2023/11/16 03:46:29;;;;;;;6.53;4.60;;;18.30;73.40;;;;;;5040503;28;21180;-78
2023/11/16 03:48:58;;;;;;;6.77;4.70;;;18.30;73.50;;;;;;5041575;28;20470;-76
2023/11/16 03:51:29;;;;;;;7.73;5.30;;;18.30;73.60;;;;;;5046545;28;20478;-76
2023/11/16 03:53:57;;;;;;;7.57;5.10;;;18.30;73.50;;;;;;5049684;28;20530;-75
2023/11/16 03:56:26;;;;;;;6.10;4.73;;;18.30;73.30;;;;;;5060694;22;20482;-75
2023/11/16 03:58:53;;;;;;;6.80;5.07;;;18.30;73.40;;;;;;5030181;28;20467;-75
2023/11/16 04:01:21;;;;;;;6.80;4.83;;;18.30;73.60;;;;;;5028874;28;20479;-76
2023/11/16 04:03:49;;;;;;;7.73;4.77;;;18.30;73.40;;;;;;5030583;28;20922;-75
2023/11/16 04:06:22;;;;;;;5.30;4.60;;;18.30;73.50;;;;;;5037765;28;20815;-75
2023/11/16 04:08:52;;;;;;;8.23;4.77;;;18.30;73.70;;;;;;5027007;28;20470;-75
2023/11/16 04:11:20;;;;;;;5.20;4.33;;;18.30;73.70;;;;;;5031582;28;20506;-75
2023/11/16 04:13:48;;;;;;;5.63;4.60;;;18.20;73.20;;;;;;5033447;28;20439;-75
2023/11/16 04:16:20;;;;;;;12.90;4.87;;;18.20;74.20;;;;;;5027058;28;20439;-75
2023/11/16 04:18:49;;;;;;;5.03;4.17;;;18.20;73.60;;;;;;5032092;28;20443;-75
2023/11/16 04:21:18;;;;;;;6.27;4.37;;;18.30;73.70;;;;;;5024042;28;20493;-76
2023/11/16 04:23:52;;;;;;;6.53;4.50;;;18.20;73.40;;;;;;5034729;28;20436;-75
2023/11/16 04:26:21;;;;;;;6.43;4.07;;;18.20;73.60;;;;;;5028853;28;20435;-75
2023/11/16 04:28:49;;;;;;;4.37;3.57;;;18.20;73.20;;;;;;5034406;28;20467;-75
2023/11/16 04:31:17;;;;;;;5.37;3.90;;;18.10;73.60;;;;;;5028128;28;20476;-75
2023/11/16 04:33:45;;;;;;;5.70;4.30;;;18.10;73.00;;;;;;5030113;28;20443;-75
2023/11/16 04:36:16;;;;;;;5.37;3.70;;;18.10;73.20;;;;;;5031661;28;20462;-75
2023/11/16 04:38:45;;;;;;;4.77;4.07;;;18.10;73.60;;;;;;5033093;28;20431;-75
2023/11/16 04:41:13;;;;;;;5.57;4.20;;;18.10;73.40;;;;;;5034700;28;20475;-75
2023/11/16 04:43:43;;;;;;;4.30;3.90;;;18.10;73.10;;;;;;5031312;28;20500;-75
2023/11/16 04:46:11;;;;;;;5.23;3.57;;;18.10;73.10;;;;;;5033579;28;20444;-75
2023/11/16 04:48:41;;;;;;;4.63;4.13;;;18.10;73.00;;;;;;5034086;28;20442;-75
2023/11/16 04:51:09;;;;;;;4.43;3.53;;;18.10;73.00;;;;;;5034095;28;20442;-75
2023/11/16 04:53:37;;;;;;;6.97;4.00;;;18.10;73.30;;;;;;5026116;28;20452;-75
2023/11/16 04:56:06;;;;;;;6.30;3.93;;;18.10;73.20;;;;;;5031847;28;20479;-75
2023/11/16 04:58:35;;;;;;;5.53;4.13;;;18.10;73.30;;;;;;5034071;28;20471;-76
2023/11/16 05:01:05;;;;;;;4.30;3.90;;;18.10;73.20;;;;;;5033141;28;20526;-76
2023/11/16 05:03:33;;;;;;;5.63;3.97;;;18.00;73.00;;;;;;5027555;28;20452;-75
2023/11/16 05:06:01;;;;;;;4.53;3.70;;;18.00;73.10;;;;;;5034025;28;20450;-74
2023/11/16 05:08:29;;;;;;;4.53;3.53;;;18.00;73.20;;;;;;5033695;28;20534;-75
2023/11/16 05:10:57;;;;;;;6.80;3.83;;;18.00;72.90;;;;;;5033692;28;20478;-74
2023/11/16 05:13:25;;;;;;;5.20;4.00;;;18.00;73.00;;;;;;5033304;28;20518;-75
2023/11/16 05:15:53;;;;;;;3.80;3.50;;;17.90;72.80;;;;;;5033786;28;20443;-75
2023/11/16 05:18:23;;;;;;;5.63;4.23;;;17.90;72.60;;;;;;5033626;28;20482;-75
2023/11/16 05:20:53;;;;;;;6.53;3.83;;;17.90;72.90;;;;;;5030462;28;20456;-75
2023/11/16 05:23:21;;;;;;;4.57;4.10;;;17.90;72.80;;;;;;5030354;28;20428;-73
2023/11/16 05:25:49;;;;;;;5.17;4.13;;;17.90;73.30;;;;;;5028349;28;20519;-74
2023/11/16 05:28:17;;;;;;;6.63;4.57;;;17.90;72.40;;;;;;5032922;28;20977;-74
2023/11/16 05:30:46;;;;;;;6.30;4.77;;;17.80;72.20;;;;;;5033331;28;20455;-74
2023/11/16 05:33:14;;;;;;;5.27;4.33;;;17.80;72.40;;;;;;5029719;28;20858;-75
2023/11/16 05:35:44;;;;;;;4.63;3.60;;;17.80;72.20;;;;;;5032216;28;20450;-75
2023/11/16 05:38:11;;;;;;;3.93;3.50;;;17.80;72.10;;;;;;5027019;28;20545;-74
2023/11/16 05:40:39;;;;;;;5.70;3.97;;;17.80;72.10;;;;;;5029437;28;20518;-75
2023/11/16 05:43:06;;;;;;;6.17;3.73;;;17.80;71.70;;;;;;5030292;28;20509;-75
2023/11/16 05:45:36;;;;;;;4.77;3.70;;;17.70;71.80;;;;;;5030289;28;20435;-74
2023/11/16 05:48:06;;;;;;;4.67;3.97;;;17.70;71.40;;;;;;5030197;28;20517;-74
2023/11/16 05:50:35;;;;;;;4.30;3.43;;;17.70;71.70;;;;;;5030335;28;20432;-75
2023/11/16 05:53:08;;;;;;;6.63;3.87;;;17.70;71.40;;;;;;5032424;28;20471;-74
2023/11/16 05:55:37;;;;;;;6.00;3.90;;;17.70;70.90;;;;;;5026705;28;20531;-75
2023/11/16 05:58:06;;;;;;;4.90;3.70;;;17.70;71.40;;;;;;5032876;28;20558;-77
2023/11/16 06:00:36;;;;;;;5.60;3.77;;;17.60;71.70;;;;;;5032811;28;20539;-75
2023/11/16 06:03:05;;;;;;;5.13;3.67;;;17.60;70.90;;;;;;5024658;28;20439;-75
2023/11/16 06:05:35;;;;;;;4.13;3.73;;;17.60;71.20;;;;;;5032864;28;20443;-75
2023/11/16 06:08:04;;;;;;;5.80;3.83;;;17.60;70.80;;;;;;5029130;28;20495;-74
2023/11/16 06:10:32;;;;;;;3.90;3.50;;;17.50;70.20;;;;;;5028896;28;20487;-74
2023/11/16 06:13:00;;;;;;;3.10;2.80;;;17.50;70.80;;;;;;5031568;28;20588;-74
2023/11/16 06:15:29;;;;;;;4.20;3.33;;;17.50;70.60;;;;;;5031001;28;20485;-75
2023/11/16 06:17:58;;;;;;;3.30;2.97;;;17.50;70.40;;;;;;5033526;28;20470;-74
2023/11/16 06:20:28;;;;;;;4.10;3.50;;;17.50;70.30;;;;;;5033317;28;20946;-74
2023/11/16 06:22:56;;;;;;;3.20;2.87;;;17.40;70.20;;;;;;5033522;28;20436;-76
2023/11/16 06:25:25;;;;;;;4.90;3.63;;;17.50;70.20;;;;;;5028999;28;20525;-76
2023/11/16 06:27:54;;;;;;;4.33;3.30;;;17.40;70.00;;;;;;5033215;28;20558;-75
2023/11/16 06:30:22;;;;;;;3.53;3.20;;;17.40;70.20;;;;;;5033569;28;20501;-75
2023/11/16 06:32:49;;;;;;;3.70;3.40;;;17.40;70.00;;;;;;5033672;28;20470;-75
2023/11/16 06:35:17;;;;;;;3.07;2.80;;;17.40;69.70;;;;;;5033413;28;20447;-75
2023/11/16 06:37:46;;;;;;;3.50;3.10;;;17.40;69.70;;;;;;5033347;28;20550;-75
2023/11/16 06:40:14;;;;;;;5.20;3.60;;;17.30;69.70;;;;;;5033320;28;20467;-75
2023/11/16 06:42:43;;;;;;;3.07;2.57;;;17.30;69.50;;;;;;5033547;28;20489;-76
2023/11/16 06:45:12;;;;;;;5.50;3.33;;;17.30;69.70;;;;;;5032960;28;20440;-75
2023/11/16 06:47:40;;;;;;;3.03;2.70;;;17.30;69.50;;;;;;5033040;28;20992;-75
2023/11/16 06:50:12;;;;;;;3.37;3.10;;;17.30;70.20;;;;;;5033198;28;20485;-74
2023/11/16 06:52:41;;;;;;;3.17;2.87;;;17.30;69.50;;;;;;5033469;28;20459;-75
2023/11/16 06:55:11;;;;;;;3.10;2.80;;;17.20;69.50;;;;;;5033148;28;20436;-75
2023/11/16 06:57:39;;;;;;;3.10;2.80;;;17.20;69.20;;;;;;5028730;28;20534;-75
2023/11/16 07:00:15;;;;;;;3.13;2.70;;;17.20;69.10;;;;;;5021699;28;20528;-74
2023/11/16 07:02:45;;;;;;;3.27;2.53;;;17.20;68.90;;;;;;5025336;28;20457;-74
2023/11/16 07:05:14;;;;;;;2.70;2.50;;;17.20;69.20;;;;;;5032580;28;20432;-75
2023/11/16 07:07:42;;;;;;;3.70;2.73;;;17.20;68.80;;;;;;5032696;28;20459;-75
2023/11/16 07:10:10;;;;;;;4.40;2.80;;;17.20;68.70;;;;;;5036548;28;20432;-75
2023/11/16 07:12:40;;;;;;;2.63;2.43;;;17.10;68.60;;;;;;5042929;28;20503;-75
2023/11/16 07:15:10;;;;;;;3.10;2.80;;;17.10;69.30;;;;;;5042121;28;20439;-75
2023/11/16 07:17:39;;;;;;;5.80;2.57;;;17.10;68.60;;;;;;5036583;28;20491;-75
2023/11/16 07:20:11;;;;;;;2.87;2.30;;;17.20;68.90;;;;;;5034723;28;20468;-75
2023/11/16 07:22:39;;;;;;;2.67;2.47;;;17.20;68.70;;;;;;5029045;28;20458;-75
2023/11/16 07:25:09;;;;;;;2.60;2.40;;;17.10;68.50;;;;;;5032796;28;20512;-74
2023/11/16 07:27:38;;;;;;;2.50;2.30;;;17.10;68.40;;;;;;5024928;28;20462;-74
2023/11/16 07:30:07;;;;;;;2.47;2.27;;;17.20;68.50;;;;;;5025184;28;20464;-74
2023/11/16 07:32:36;;;;;;;3.00;2.23;;;17.10;68.10;;;;;;5031810;28;20440;-74
2023/11/16 07:35:14;;;;;;;3.37;2.30;;;17.10;68.20;;;;;;5032643;28;20439;-75
2023/11/16 07:37:44;;;;;;;3.37;2.60;;;17.10;68.00;;;;;;5025403;28;20471;-75
2023/11/16 07:40:13;;;;;;;5.20;2.90;;;17.10;68.00;;;;;;5019204;28;20529;-76
2023/11/16 07:42:41;;;;;;;2.53;2.33;;;17.10;68.40;;;;;;5032240;28;20444;-76
2023/11/16 07:45:10;;;;;;;3.07;2.37;;;17.10;68.40;;;;;;5032122;28;20823;-75
2023/11/16 07:47:41;;;;;;;3.27;2.30;;;17.10;68.30;;;;;;5023511;28;20536;-75
2023/11/16 07:50:11;;;;;;;2.70;2.50;;;17.10;68.20;;;;;;5031701;28;20514;-74
2023/11/16 07:52:43;;;;;;;2.37;2.17;;;17.20;68.30;;;;;;5024176;28;20431;-75
2023/11/16 07:55:15;;;;;;;1.83;1.63;;;17.20;67.80;;;;;;5023894;28;20439;-75
2023/11/16 07:57:47;;;;;;;2.60;2.40;;;17.10;67.80;;;;;;5024083;28;20495;-75
2023/11/16 08:00:22;;;;;;;2.40;2.10;;;17.10;68.20;;;;;;5031555;28;20494;-74
2023/11/16 08:05:39;;;;;;;2.97;2.43;;;17.20;68.00;;;;;;5031834;28;20507;-75
2023/11/16 08:08:11;;;;;;;2.20;2.00;;;17.30;68.10;;;;;;5032335;28;20455;-75
2023/11/16 08:10:39;;;;;;;2.20;2.03;;;17.30;68.30;;;;;;5031812;28;20525;-75
2023/11/16 08:13:09;;;;;;;3.03;2.43;;;17.40;68.40;;;;;;5027581;28;20546;-75
2023/11/16 08:15:40;;;;;;;2.80;2.23;;;17.50;68.30;;;;;;5023661;28;20485;-75
2023/11/16 08:18:12;;;;;;;2.23;2.03;;;17.50;68.40;;;;;;5031932;28;20495;-75
2023/11/16 08:20:40;;;;;;;2.93;1.73;;;17.60;68.30;;;;;;5023765;28;20456;-76
2023/11/16 08:23:09;;;;;;;3.40;2.30;;;17.60;68.20;;;;;;5031738;28;20511;-75
2023/11/16 08:25:38;;;;;;;3.20;1.90;;;17.60;68.40;;;;;;5031246;28;20452;-75
2023/11/16 08:28:08;;;;;;;1.90;1.80;;;17.60;68.60;;;;;;5031384;28;20455;-76
2023/11/16 08:30:37;;;;;;;2.20;2.10;;;17.70;68.80;;;;;;5031743;28;20431;-74
2023/11/16 08:33:07;;;;;;;1.80;1.70;;;17.70;68.70;;;;;;5031091;28;20443;-75
2023/11/16 08:35:37;;;;;;;1.70;1.60;;;17.70;68.90;;;;;;5031593;28;20501;-74
2023/11/16 08:38:07;;;;;;;1.90;1.60;;;17.80;68.90;;;;;;5031556;28;20521;-74
2023/11/16 08:40:36;;;;;;;3.27;2.07;;;17.80;68.90;;;;;;5026790;28;20478;-74
2023/11/16 08:43:10;;;;;;;1.77;1.67;;;17.80;69.10;;;;;;5027859;28;20451;-74
2023/11/16 08:45:39;;;;;;;1.90;1.70;;;17.90;69.20;;;;;;5031638;28;20488;-74
2023/11/16 08:48:09;;;;;;;1.90;1.80;;;17.90;69.20;;;;;;5031740;28;20474;-74
2023/11/16 08:50:42;;;;;;;1.90;1.80;;;17.90;68.90;;;;;;5032057;28;20451;-76
2023/11/16 08:53:12;;;;;;;1.70;1.60;;;17.90;69.30;;;;;;5027322;28;20443;-75
2023/11/16 08:55:41;;;;;;;1.80;1.70;;;17.90;69.50;;;;;;5031338;28;20478;-76
2023/11/16 08:58:11;;;;;;;2.20;2.00;;;18.10;70.10;;;;;;5031821;28;20479;-75
2023/11/16 09:00:45;;;;;;;3.07;1.57;;;18.30;70.20;;;;;;5026374;28;20459;-75
2023/11/16 09:03:13;;;;;;;2.00;1.50;;;18.50;70.30;;;;;;5034716;28;20449;-75
2023/11/16 09:05:43;;;;;;;1.70;1.60;;;18.60;70.00;;;;;;5032791;28;20443;-77
2023/11/16 09:08:13;;;;;;;1.83;1.73;;;18.70;69.90;;;;;;5033445;28;20459;-76
2023/11/16 09:10:42;;;;;;;1.90;1.80;;;18.70;69.80;;;;;;5035773;28;20478;-73
2023/11/16 09:13:11;;;;;;;2.27;2.00;;;18.80;70.30;;;;;;5030982;28;20466;-76
2023/11/16 09:15:41;;;;;;;1.77;1.63;;;18.90;70.80;;;;;;5037546;28;20660;-74
2023/11/16 09:18:09;;;;;;;2.33;1.80;;;19.10;71.00;;;;;;5039440;28;20487;-74
2023/11/16 09:20:38;;;;;;;2.00;1.90;;;19.20;71.20;;;;;;5035260;28;20436;-75
2023/11/16 09:23:10;;;;;;;1.70;1.60;;;19.20;71.00;;;;;;5035653;28;20431;-73
2023/11/16 09:25:40;;;;;;;1.77;1.67;;;19.30;71.20;;;;;;5034343;28;20443;-74
2023/11/16 09:28:11;;;;;;;1.63;1.53;;;19.30;71.20;;;;;;5035747;28;20494;-75
2023/11/16 09:30:39;;;;;;;2.00;1.80;;;19.30;71.40;;;;;;5035505;28;20462;-74
2023/11/16 09:33:09;;;;;;;1.50;1.40;;;19.30;71.60;;;;;;5035094;28;20493;-75
2023/11/16 09:35:40;;;;;;;2.10;1.97;;;19.30;71.70;;;;;;5035032;28;20438;-75
2023/11/16 09:38:10;;;;;;;3.57;1.80;;;19.40;71.90;;;;;;5035004;28;20475;-73
2023/11/16 09:40:38;;;;;;;1.67;1.57;;;19.30;71.80;;;;;;5034867;28;20443;-73
2023/11/16 09:43:17;;;;;;;1.80;1.70;;;19.40;72.00;;;;;;5033141;28;20456;-74
2023/11/16 09:45:48;;;;;;;1.33;1.30;;;19.50;72.10;;;;;;5034499;28;20478;-73
2023/11/16 09:48:25;;;;;;;1.40;1.30;;;19.50;71.90;;;;;;5034256;28;20467;-76
2023/11/16 09:50:54;;;;;;;1.93;1.83;;;19.60;72.00;;;;;;5032721;28;20451;-73
2023/11/16 09:53:26;;;;;;;1.70;1.60;;;19.60;72.10;;;;;;5033208;28;20448;-73
2023/11/16 09:55:59;;;;;;;1.47;1.30;;;19.60;72.00;;;;;;5033711;28;20555;-74
2023/11/16 09:58:28;;;;;;;1.53;1.43;;;19.60;71.90;;;;;;5080652;22;20481;-79
2023/11/16 10:00:57;;;;;;;1.97;1.80;;;19.60;71.90;;;;;;5071343;28;20454;-80
2023/11/16 10:03:25;;;;;;;3.90;1.60;;;19.60;72.00;;;;;;5066448;28;20446;-81
2023/11/16 10:05:55;;;;;;;1.53;1.43;;;19.60;72.00;;;;;;5063600;28;20446;-78
2023/11/16 10:08:25;;;;;;;1.83;1.73;;;19.60;72.10;;;;;;5056887;28;20425;-79
2023/11/16 10:10:55;;;;;;;1.53;1.43;;;19.60;72.00;;;;;;5052630;28;20442;-78
2023/11/16 10:13:23;;;;;;;1.87;1.50;;;19.50;72.10;;;;;;5053573;28;20438;-79
2023/11/16 10:15:53;;;;;;;1.83;1.57;;;19.50;72.10;;;;;;5061182;28;20575;-77
2023/11/16 10:18:22;;;;;;;1.87;1.50;;;19.40;72.10;;;;;;5063410;28;20475;-77
2023/11/16 10:20:50;;;;;;;2.20;1.10;;;19.40;72.10;;;;;;5062525;28;20533;-78
2023/11/16 10:23:19;;;;;;;3.57;1.20;;;17.70;58.50;;;;;;5069029;28;20476;-78
2023/11/16 10:25:49;;;;;;;3.00;1.53;;;16.30;61.70;;;;;;5074001;28;21038;-78
2023/11/16 10:28:18;;;;;;;4.17;1.80;;;15.50;63.90;;;;;;5057685;28;20556;-78
2023/11/16 10:30:50;;;;;;;4.00;1.60;;;14.40;65.60;;;;;;5053331;28;20446;-79
2023/11/16 10:33:20;;;;;;;4.20;1.67;;;13.80;67.50;;;;;;5068405;28;20449;-78
2023/11/16 10:35:49;;;;;;;4.97;2.03;;;13.40;69.50;;;;;;5065990;28;20478;-82
2023/11/16 10:38:18;;;;;;;4.93;1.50;;;13.30;75.00;;;;;;5068128;28;20500;-77
2023/11/16 10:40:51;;;;;;;3.13;1.63;;;14.50;77.20;;;;;;5061872;28;20473;-81
2023/11/16 10:43:19;;;;;;;3.40;1.40;;;15.30;73.70;;;;;;5069819;28;20430;-78
2023/11/16 10:45:48;;;;;;;4.10;1.80;;;15.90;70.40;;;;;;5063733;28;20441;-79
2023/11/16 10:48:18;;;;;;;2.93;1.23;;;16.40;70.10;;;;;;5071363;28;20485;-76
2023/11/16 10:50:46;;;;;;;2.10;1.10;;;16.70;67.70;;;;;;5058846;28;20446;-78
2023/11/16 10:53:17;;;;;;;1.50;1.37;;;17.00;67.30;;;;;;5059711;28;20478;-77
2023/11/16 10:55:46;;;;;;;3.70;1.80;;;17.30;67.10;;;;;;5066374;28;20498;-78
2023/11/16 10:58:20;;;;;;;2.90;1.60;;;17.50;65.80;;;;;;5060454;28;20506;-77
2023/11/16 11:00:52;;;;;;;6.60;1.73;;;17.70;64.40;;;;;;5070322;28;20522;-77
2023/11/16 11:03:20;;;;;;;1.47;1.03;;;17.90;64.60;;;;;;5068973;28;20467;-78
2023/11/16 11:05:52;;;;;;;5.90;1.40;;;18.20;64.90;;;;;;5070208;28;20425;-77
2023/11/16 11:08:21;;;;;;;5.07;1.43;;;18.40;64.80;;;;;;5065995;28;21014;-77
2023/11/16 11:10:49;;;;;;;3.53;1.50;;;18.60;63.30;;;;;;5064084;28;20495;-78
2023/11/16 11:13:26;;;;;;;3.27;1.50;;;18.80;63.90;;;;;;5059175;28;20485;-80
2023/11/16 11:15:54;;;;;;;4.77;2.00;;;19.00;62.30;;;;;;5066592;28;20563;-79
2023/11/16 11:18:26;;;;;;;2.10;1.90;;;19.20;63.10;;;;;;5068898;28;20566;-79
2023/11/16 11:20:54;;;;;;;6.00;1.93;;;19.40;62.50;;;;;;5056204;28;20446;-79
2023/11/16 11:23:22;;;;;;;3.33;1.90;;;19.50;62.40;;;;;;5062724;28;20470;-79
2023/11/16 11:25:51;;;;;;;3.83;1.60;;;19.80;61.90;;;;;;5064831;28;20496;-78
2023/11/16 11:28:22;;;;;;;11.53;1.80;;;19.90;61.20;;;;;;5075300;28;20466;-78
2023/11/16 11:30:54;;;;;;;2.50;1.30;;;20.10;59.90;;;;;;5066916;28;20496;-79
2023/11/16 11:33:27;;;;;;;4.17;1.50;;;20.10;60.30;;;;;;5062708;28;20442;-78
2023/11/16 11:35:56;;;;;;;1.30;1.20;;;20.20;59.40;;;;;;5065352;28;20470;-79
2023/11/16 11:38:27;;;;;;;1.33;1.13;;;20.20;59.40;;;;;;5068780;28;20469;-80
2023/11/16 11:40:59;;;;;;;2.93;1.40;;;20.20;59.10;;;;;;5060806;28;20451;-79
2023/11/16 11:43:27;;;;;;;3.50;1.13;;;20.30;59.50;;;;;;5082741;28;20461;-78
2023/11/16 11:45:57;;;;;;;2.10;1.50;;;20.40;59.20;;;;;;5080013;28;20491;-82
2023/11/16 11:48:26;;;;;;;4.83;2.00;;;20.50;58.90;;;;;;5063256;28;21119;-80
2023/11/16 11:50:56;;;;;;;4.20;1.50;;;20.50;58.50;;;;;;5066051;28;20442;-81
2023/11/16 11:53:27;;;;;;;3.10;1.77;;;20.50;58.50;;;;;;5062373;28;20465;-81
2023/11/16 11:55:56;;;;;;;1.67;1.57;;;20.50;58.00;;;;;;5071149;28;20484;-81
2023/11/16 11:58:25;;;;;;;2.37;1.50;;;20.40;57.30;;;;;;5072607;28;20461;-79
2023/11/16 12:00:54;;;;;;;1.87;1.77;;;20.30;57.10;;;;;;5071215;28;20541;-80
2023/11/16 12:03:24;;;;;;;3.40;2.20;;;20.20;56.80;;;;;;5076928;28;20401;-80
2023/11/16 12:05:58;;;;;;;2.90;2.00;;;20.20;57.10;;;;;;5078712;28;20528;-79
2023/11/16 12:08:39;;;;;;;8.17;1.53;;;20.40;57.30;;;;;;5090170;28;20465;-80
2023/11/16 12:11:09;;;;;;;8.00;1.93;;;20.70;56.90;;;;;;5090922;28;20470;-80
2023/11/16 12:13:38;;;;;;;6.20;2.10;;;21.10;56.70;;;;;;5086324;28;20465;-80
2023/11/16 12:16:07;;;;;;;4.37;3.20;;;21.60;56.50;;;;;;5079661;28;20440;-80
2023/11/16 12:18:38;;;;;;;8.93;5.47;;;21.90;55.60;;;;;;5077414;28;20431;-79
2023/11/16 12:21:07;;;;;;;11.93;5.50;;;22.20;54.70;;;;;;5076302;28;20430;-80
2023/11/16 12:23:36;;;;;;;5.87;5.27;;;22.60;54.50;;;;;;5071999;28;20442;-79
2023/11/16 12:26:07;;;;;;;4.70;4.23;;;22.90;53.90;;;;;;5076166;28;20400;-78
2023/11/16 12:28:35;;;;;;;9.50;4.00;;;23.10;52.60;;;;;;5076531;28;20457;-78
2023/11/16 12:31:04;;;;;;;5.10;4.03;;;23.40;51.50;;;;;;5069536;28;20421;-77
2023/11/16 12:33:32;;;;;;;10.70;6.97;;;23.70;51.20;;;;;;5075942;28;20397;-79
2023/11/16 12:36:03;;;;;;;10.90;6.47;;;23.90;50.90;;;;;;5087549;28;20462;-78
2023/11/16 12:38:31;;;;;;;6.83;5.50;;;24.10;50.80;;;;;;5085180;28;20473;-79
2023/11/16 12:40:59;;;;;;;5.77;4.10;;;24.20;50.20;;;;;;5085381;28;20439;-79
2023/11/16 12:43:28;;;;;;;12.43;7.90;;;24.40;49.70;;;;;;5083524;28;20436;-78
2023/11/16 12:45:56;;;;;;;10.23;6.63;;;24.60;49.40;;;;;;5081146;28;20435;-78
2023/11/16 12:48:24;;;;;;;15.07;9.87;;;24.80;49.10;;;;;;5084953;28;20437;-79
2023/11/16 12:50:54;;;;;;;14.57;10.87;;;24.80;48.20;;;;;;5078670;28;20441;-79
2023/11/16 12:53:24;;;;;;;12.57;9.00;;;24.50;47.80;;;;;;5087402;28;20429;-78
2023/11/16 12:55:54;;;;;;;9.83;7.77;;;24.30;48.00;;;;;;5076945;28;20445;-79
2023/11/16 12:58:23;;;;;;;11.60;7.87;;;24.10;47.90;;;;;;5081747;28;20436;-81